Gaellnoe — D5AI5 — position and weather

sailwx.info

Track history (hours):
 
Tides and Currents Weather Stations Pressure Air Temp Water Temp Dewpoint Dewpoint Depression Visibility Wind Speed Wind Dir Waves Ship Positions

Gaellnoe

Last reported at 2018-Feb-19 07:59 UTC. Time now 2018-Feb-19 08:21 UTC.
Position N 59°21' E 018°07'.

Length 108 m; draft 6.9 m.

Type: Cargo ship. MMSI: 636092323.

Date/timePositionNaut miles runAvg speedWind from/ knotsBaromVisibWave heightAir tempDewpointWater temp
2018-Feb-19 07:59N 59°21' E 018°07'0 0.0
2018-Feb-19 07:26N 59°21' E 018°07'0 0.0
2018-Feb-19 06:50N 59°21' E 018°07'0 0.0
2018-Feb-19 06:26N 59°21' E 018°07'0 0.0
2018-Feb-19 05:56N 59°21' E 018°07'0 0.0
2018-Feb-19 05:23N 59°21' E 018°07'0 0.0
2018-Feb-19 04:56N 59°21' E 018°07'0 0.0
2018-Feb-19 04:29N 59°21' E 018°07'0 0.0
2018-Feb-19 03:59N 59°21' E 018°07'0 0.0
2018-Feb-19 03:26N 59°21' E 018°07'0 0.0
2018-Feb-19 02:56N 59°21' E 018°07'0 0.0
2018-Feb-19 02:26N 59°21' E 018°07'0 0.0
2018-Feb-19 01:59N 59°21' E 018°07'0 0.0
2018-Feb-19 01:26N 59°21' E 018°07'0 0.0
2018-Feb-19 00:59N 59°21' E 018°07'0 0.0
2018-Feb-19 00:29N 59°21' E 018°07'0 0.0
2018-Feb-18 23:59N 59°21' E 018°07'0 0.0
2018-Feb-18 23:29N 59°21' E 018°07'0 0.0
2018-Feb-18 22:56N 59°21' E 018°07'0 0.0
2018-Feb-18 22:29N 59°21' E 018°07'0 0.0
2018-Feb-18 21:59N 59°21' E 018°07'0 0.3
2018-Feb-18 21:30N 59°21' E 018°07'3 6.4
2018-Feb-18 21:00N 59°21' E 018°13'5 9.5
2018-Feb-18 20:31N 59°22' E 018°22'3 5.7
2018-Feb-18 20:00N 59°24' E 018°27'3 5.6
2018-Feb-18 19:30N 59°26' E 018°26'5 9.7
2018-Feb-18 18:59N 59°23' E 018°34'5 9.4
2018-Feb-18 18:30N 59°22' E 018°43'5 9.5
2018-Feb-18 18:00N 59°19' E 018°49'10 8.6
2018-Feb-18 16:49N 59°14' E 019°07'7010.4
2018-Feb-18 10:08N 59°24' E 021°22'110.9
2018-Feb-18 10:00N 59°24' E 021°24'510.8
2018-Feb-18 09:31N 59°24' E 021°35'4510.7
2018-Feb-18 05:19N 59°35' E 023°01'411.0
2018-Feb-18 04:57N 59°35' E 023°09'510.4
2018-Feb-18 04:30N 59°36' E 023°18'510.1
2018-Feb-18 04:01N 59°36' E 023°27'510.5
2018-Feb-18 03:30N 59°33' E 023°35'  
2018-Feb-14 18:15N 53°45' E 014°24'311.5
2018-Feb-14 18:00N 53°43' E 014°27'510.8
2018-Feb-14 17:30N 53°39' E 014°33'610.2
2018-Feb-14 16:56N 53°33' E 014°36'4 8.8
2018-Feb-14 16:30N 53°30' E 014°37'4 8.0
2018-Feb-14 15:59N 53°26' E 014°35'0 0.8
2018-Feb-14 15:24N 53°25' E 014°34'0 0.0
2018-Feb-14 14:57N 53°25' E 014°34'0 0.0
2018-Feb-14 14:15N 53°25' E 014°34'0 0.0
2018-Feb-14 13:51N 53°25' E 014°34'0 0.0
2018-Feb-14 13:24N 53°25' E 014°34'0 0.0
2018-Feb-14 12:57N 53°25' E 014°34'0 0.0
2018-Feb-14 12:27N 53°25' E 014°34'0 0.0
2018-Feb-14 11:54N 53°25' E 014°34'0 0.0
2018-Feb-14 11:27N 53°25' E 014°34'0 0.0
2018-Feb-14 10:57N 53°25' E 014°34'0 0.0
2018-Feb-14 10:27N 53°25' E 014°34'0 0.0
2018-Feb-14 10:00N 53°25' E 014°34'0 0.0
2018-Feb-14 09:27N 53°25' E 014°34'0 0.0
2018-Feb-14 09:00N 53°25' E 014°34'0 0.0
2018-Feb-14 08:21N 53°25' E 014°34'0 0.0
2018-Feb-14 07:57N 53°25' E 014°34'0 0.0
2018-Feb-14 07:27N 53°25' E 014°34'0 0.0
2018-Feb-14 07:00N 53°25' E 014°34'0 0.0
2018-Feb-14 06:21N 53°25' E 014°34'0 0.0
2018-Feb-14 06:00N 53°25' E 014°34'0 0.0
2018-Feb-14 05:30N 53°25' E 014°34'0 0.0
2018-Feb-14 04:54N 53°25' E 014°34'0 0.0
2018-Feb-14 04:30N 53°25' E 014°34'0 0.0
2018-Feb-14 04:00N 53°25' E 014°34'0 0.0
2018-Feb-14 03:27N 53°25' E 014°34'0 0.0
2018-Feb-14 02:57N 53°25' E 014°34'0 0.0
2018-Feb-14 02:21N 53°25' E 014°34'0 0.0
2018-Feb-14 01:57N 53°25' E 014°34'0 0.0
2018-Feb-14 01:30N 53°25' E 014°34'0 0.0
2018-Feb-14 00:57N 53°25' E 014°34'0 0.0
2018-Feb-14 00:21N 53°25' E 014°34'0 0.0
2018-Feb-14 00:00N 53°25' E 014°34'0 0.0
2018-Feb-13 23:27N 53°25' E 014°34'0 0.0
2018-Feb-13 22:57N 53°25' E 014°34'0 0.0
2018-Feb-13 22:27N 53°25' E 014°34'0 0.0
2018-Feb-13 21:57N 53°25' E 014°34'0 0.0
2018-Feb-13 21:27N 53°25' E 014°34'0 0.0
2018-Feb-13 21:00N 53°25' E 014°34'0 0.0
2018-Feb-13 20:30N 53°25' E 014°34'0 0.0
2018-Feb-13 20:00N 53°25' E 014°34'0 0.0
2018-Feb-13 19:18N 53°25' E 014°34'0 0.0
2018-Feb-13 19:00N 53°25' E 014°34'0 0.0
2018-Feb-13 18:30N 53°25' E 014°34'0 0.0
2018-Feb-13 17:57N 53°25' E 014°34'0 0.0
2018-Feb-13 17:24N 53°25' E 014°34'0 0.0
2018-Feb-13 16:57N 53°25' E 014°34'0 0.0
2018-Feb-13 16:24N 53°25' E 014°34'0 0.0
2018-Feb-13 16:00N 53°25' E 014°34'0 0.0
2018-Feb-13 15:15N 53°25' E 014°34'0 0.0
2018-Feb-13 14:42N 53°25' E 014°34'0 0.0
2018-Feb-13 14:21N 53°25' E 014°34'0 0.0
2018-Feb-13 13:54N 53°25' E 014°34'0 0.0
2018-Feb-13 13:21N 53°25' E 014°34'0 0.0
2018-Feb-13 12:57N 53°25' E 014°34'0 0.0
2018-Feb-13 12:27N 53°25' E 014°34'0 0.0
2018-Feb-13 11:39N 53°25' E 014°34'0 0.0
2018-Feb-13 11:12N 53°25' E 014°34'0 0.0
2018-Feb-13 10:51N 53°25' E 014°34'0 0.0
2018-Feb-13 10:30N 53°25' E 014°34'0 0.0
2018-Feb-13 09:57N 53°25' E 014°34'0 0.0
2018-Feb-13 09:03N 53°25' E 014°34'0 0.0
2018-Feb-13 08:48N 53°25' E 014°34'0 0.0
2018-Feb-13 08:27N 53°25' E 014°34'0 0.0
2018-Feb-13 07:57N 53°25' E 014°34'0 0.0
2018-Feb-13 07:30N 53°25' E 014°34'0 0.0
2018-Feb-13 06:57N 53°25' E 014°34'0 0.0
2018-Feb-13 06:30N 53°25' E 014°34'0 0.0
2018-Feb-13 05:57N 53°25' E 014°34'0 0.0
2018-Feb-13 05:27N 53°25' E 014°34'0 0.0
2018-Feb-13 05:00N 53°25' E 014°34'0 0.0
2018-Feb-13 04:30N 53°25' E 014°34'0 0.0
2018-Feb-13 04:00N 53°25' E 014°34'0 0.0
2018-Feb-13 03:24N 53°25' E 014°34'0 0.0
2018-Feb-13 02:54N 53°25' E 014°34'0 0.0
2018-Feb-13 02:24N 53°25' E 014°34'0 0.0
2018-Feb-13 02:00N 53°25' E 014°34'0 0.0
2018-Feb-13 01:24N 53°25' E 014°34'0 0.0
2018-Feb-13 00:42N 53°25' E 014°34'0 0.0
2018-Feb-13 00:30N 53°25' E 014°34'0 0.0
2018-Feb-12 23:54N 53°25' E 014°34'0 0.0
2018-Feb-12 23:27N 53°25' E 014°34'0 0.0
2018-Feb-12 22:57N 53°25' E 014°34'0 0.0
2018-Feb-12 22:27N 53°25' E 014°34'0 0.0
2018-Feb-12 21:48N 53°25' E 014°34'0 0.0
2018-Feb-12 21:21N 53°25' E 014°34'0 0.0
2018-Feb-12 20:51N 53°25' E 014°34'0 0.0
2018-Feb-12 20:27N 53°25' E 014°34'0 0.0
2018-Feb-12 19:57N 53°25' E 014°34'0 0.0
2018-Feb-12 19:30N 53°25' E 014°34'0 0.0
2018-Feb-12 18:27N 53°25' E 014°34'0 0.0
2018-Feb-12 17:57N 53°25' E 014°34'0 0.0
2018-Feb-12 17:27N 53°25' E 014°34'0 0.0
2018-Feb-12 17:00N 53°25' E 014°34'0 0.0
2018-Feb-12 16:27N 53°25' E 014°34'0 0.0
2018-Feb-12 15:18N 53°25' E 014°34'0 0.0
2018-Feb-12 14:57N 53°25' E 014°34'0 0.0
2018-Feb-12 14:30N 53°25' E 014°34'0 0.0
2018-Feb-12 13:51N 53°25' E 014°34'0 0.0
2018-Feb-12 13:27N 53°25' E 014°34'0 0.0
2018-Feb-12 12:57N 53°25' E 014°34'0 0.0
2018-Feb-12 12:27N 53°25' E 014°34'0 0.0
2018-Feb-12 12:00N 53°25' E 014°34'0 0.0
2018-Feb-12 11:27N 53°25' E 014°34'0 0.0
2018-Feb-12 10:54N 53°25' E 014°34'0 0.0
2018-Feb-12 10:24N 53°25' E 014°34'0 0.0
2018-Feb-12 10:00N 53°25' E 014°34'0 0.0
2018-Feb-12 09:30N 53°25' E 014°34'0 0.0
2018-Feb-12 09:00N 53°25' E 014°34'0 0.0
2018-Feb-12 08:30N 53°25' E 014°34'0 0.0
2018-Feb-12 08:00N 53°25' E 014°34'0 0.0
2018-Feb-12 07:30N 53°25' E 014°34'0 0.0
2018-Feb-12 07:00N 53°25' E 014°34'0 0.0
2018-Feb-12 06:30N 53°25' E 014°34'0 0.0
2018-Feb-12 06:00N 53°25' E 014°34'0 0.0
2018-Feb-12 05:30N 53°25' E 014°34'0 0.0
2018-Feb-12 05:00N 53°25' E 014°34'0 0.0
2018-Feb-12 04:30N 53°25' E 014°34'0 0.0
2018-Feb-12 04:00N 53°25' E 014°34'0 0.0
2018-Feb-12 03:30N 53°25' E 014°34'0 0.0
2018-Feb-12 03:00N 53°25' E 014°34'0 0.0
2018-Feb-12 02:30N 53°25' E 014°34'0 0.0
2018-Feb-12 02:00N 53°25' E 014°34'0 0.0
2018-Feb-12 01:30N 53°25' E 014°34'0 0.0
2018-Feb-12 01:00N 53°25' E 014°34'0 0.0
2018-Feb-12 00:30N 53°25' E 014°34'0 0.0
2018-Feb-12 00:00N 53°25' E 014°34'0 0.0
2018-Feb-11 23:30N 53°25' E 014°34'0 0.0
2018-Feb-11 23:00N 53°25' E 014°34'0 0.0
2018-Feb-11 22:30N 53°25' E 014°34'0 0.0
2018-Feb-11 22:00N 53°25' E 014°34'0 0.0
2018-Feb-11 21:30N 53°25' E 014°34'0 0.0
2018-Feb-11 21:00N 53°25' E 014°34'0 0.0
2018-Feb-11 20:30N 53°25' E 014°34'0 0.0
2018-Feb-11 20:00N 53°25' E 014°34'0 0.0
2018-Feb-11 19:27N 53°25' E 014°34'0 0.0
2018-Feb-11 19:00N 53°25' E 014°34'0 0.0
2018-Feb-11 18:30N 53°25' E 014°34'0 0.0
2018-Feb-11 18:00N 53°25' E 014°34'0 0.0
2018-Feb-11 17:30N 53°25' E 014°34'0 0.0
2018-Feb-11 17:00N 53°25' E 014°34'0 0.5
2018-Feb-11 16:30N 53°26' E 014°35'3 5.5
2018-Feb-11 16:01N 53°28' E 014°36'4 7.9
2018-Feb-11 15:30N 53°32' E 014°38'4 8.5
2018-Feb-11 15:00N 53°36' E 014°35'4 8.6
2018-Feb-11 14:31N 53°40' E 014°32'460 9.9
2018-Feb-09 16:01N 59°38' E 023°18'611.0
2018-Feb-09 15:30N 59°39' E 023°28'611.1
2018-Feb-09 15:00N 59°41' E 023°39'511.0
2018-Feb-09 14:31N 59°42' E 023°49'4810.7
2018-Feb-09 10:00N 59°53' E 025°23'  
Track history (hours):
 
Tides and Currents Weather Stations Pressure Air Temp Water Temp Dewpoint Dewpoint Depression Visibility Wind Speed Wind Dir Waves Ship Positions

Gaellnoe

Last reported at 2018-Feb-19 07:59 UTC. Time now 2018-Feb-19 08:21 UTC.
Position N 59°21' E 018°07'.

Length 108 m; draft 6.9 m.

Type: Cargo ship. MMSI: 636092323.

Date/timePositionNaut miles runAvg speedWind from/ knotsBaromVisibWave heightAir tempDewpointWater temp
2018-Feb-19 07:59N 59°21' E 018°07'0 0.0
2018-Feb-19 07:26N 59°21' E 018°07'0 0.0
2018-Feb-19 06:50N 59°21' E 018°07'0 0.0
2018-Feb-19 06:26N 59°21' E 018°07'0 0.0
2018-Feb-19 05:56N 59°21' E 018°07'0 0.0
2018-Feb-19 05:23N 59°21' E 018°07'0 0.0
2018-Feb-19 04:56N 59°21' E 018°07'0 0.0
2018-Feb-19 04:29N 59°21' E 018°07'0 0.0
2018-Feb-19 03:59N 59°21' E 018°07'0 0.0
2018-Feb-19 03:26N 59°21' E 018°07'0 0.0
2018-Feb-19 02:56N 59°21' E 018°07'0 0.0
2018-Feb-19 02:26N 59°21' E 018°07'0 0.0
2018-Feb-19 01:59N 59°21' E 018°07'0 0.0
2018-Feb-19 01:26N 59°21' E 018°07'0 0.0
2018-Feb-19 00:59N 59°21' E 018°07'0 0.0
2018-Feb-19 00:29N 59°21' E 018°07'0 0.0
2018-Feb-18 23:59N 59°21' E 018°07'0 0.0
2018-Feb-18 23:29N 59°21' E 018°07'0 0.0
2018-Feb-18 22:56N 59°21' E 018°07'0 0.0
2018-Feb-18 22:29N 59°21' E 018°07'0 0.0
2018-Feb-18 21:59N 59°21' E 018°07'0 0.3
2018-Feb-18 21:30N 59°21' E 018°07'3 6.4
2018-Feb-18 21:00N 59°21' E 018°13'5 9.5
2018-Feb-18 20:31N 59°22' E 018°22'3 5.7
2018-Feb-18 20:00N 59°24' E 018°27'3 5.6
2018-Feb-18 19:30N 59°26' E 018°26'5 9.7
2018-Feb-18 18:59N 59°23' E 018°34'5 9.4
2018-Feb-18 18:30N 59°22' E 018°43'5 9.5
2018-Feb-18 18:00N 59°19' E 018°49'10 8.6
2018-Feb-18 16:49N 59°14' E 019°07'7010.4
2018-Feb-18 10:08N 59°24' E 021°22'110.9
2018-Feb-18 10:00N 59°24' E 021°24'510.8
2018-Feb-18 09:31N 59°24' E 021°35'4510.7
2018-Feb-18 05:19N 59°35' E 023°01'411.0
2018-Feb-18 04:57N 59°35' E 023°09'510.4
2018-Feb-18 04:30N 59°36' E 023°18'510.1
2018-Feb-18 04:01N 59°36' E 023°27'510.5
2018-Feb-18 03:30N 59°33' E 023°35'  
2018-Feb-14 18:15N 53°45' E 014°24'311.5
2018-Feb-14 18:00N 53°43' E 014°27'510.8
2018-Feb-14 17:30N 53°39' E 014°33'610.2
2018-Feb-14 16:56N 53°33' E 014°36'4 8.8
2018-Feb-14 16:30N 53°30' E 014°37'4 8.0
2018-Feb-14 15:59N 53°26' E 014°35'0 0.8
2018-Feb-14 15:24N 53°25' E 014°34'0 0.0
2018-Feb-14 14:57N 53°25' E 014°34'0 0.0
2018-Feb-14 14:15N 53°25' E 014°34'0 0.0
2018-Feb-14 13:51N 53°25' E 014°34'0 0.0
2018-Feb-14 13:24N 53°25' E 014°34'0 0.0
2018-Feb-14 12:57N 53°25' E 014°34'0 0.0
2018-Feb-14 12:27N 53°25' E 014°34'0 0.0
2018-Feb-14 11:54N 53°25' E 014°34'0 0.0
2018-Feb-14 11:27N 53°25' E 014°34'0 0.0
2018-Feb-14 10:57N 53°25' E 014°34'0 0.0
2018-Feb-14 10:27N 53°25' E 014°34'0 0.0
2018-Feb-14 10:00N 53°25' E 014°34'0 0.0
2018-Feb-14 09:27N 53°25' E 014°34'0 0.0
2018-Feb-14 09:00N 53°25' E 014°34'0 0.0
2018-Feb-14 08:21N 53°25' E 014°34'0 0.0
2018-Feb-14 07:57N 53°25' E 014°34'0 0.0
2018-Feb-14 07:27N 53°25' E 014°34'0 0.0
2018-Feb-14 07:00N 53°25' E 014°34'0 0.0
2018-Feb-14 06:21N 53°25' E 014°34'0 0.0
2018-Feb-14 06:00N 53°25' E 014°34'0 0.0
2018-Feb-14 05:30N 53°25' E 014°34'0 0.0
2018-Feb-14 04:54N 53°25' E 014°34'0 0.0
2018-Feb-14 04:30N 53°25' E 014°34'0 0.0
2018-Feb-14 04:00N 53°25' E 014°34'0 0.0
2018-Feb-14 03:27N 53°25' E 014°34'0 0.0
2018-Feb-14 02:57N 53°25' E 014°34'0 0.0
2018-Feb-14 02:21N 53°25' E 014°34'0 0.0
2018-Feb-14 01:57N 53°25' E 014°34'0 0.0
2018-Feb-14 01:30N 53°25' E 014°34'0 0.0
2018-Feb-14 00:57N 53°25' E 014°34'0 0.0
2018-Feb-14 00:21N 53°25' E 014°34'0 0.0
2018-Feb-14 00:00N 53°25' E 014°34'0 0.0
2018-Feb-13 23:27N 53°25' E 014°34'0 0.0
2018-Feb-13 22:57N 53°25' E 014°34'0 0.0
2018-Feb-13 22:27N 53°25' E 014°34'0 0.0
2018-Feb-13 21:57N 53°25' E 014°34'0 0.0
2018-Feb-13 21:27N 53°25' E 014°34'0 0.0
2018-Feb-13 21:00N 53°25' E 014°34'0 0.0
2018-Feb-13 20:30N 53°25' E 014°34'0 0.0
2018-Feb-13 20:00N 53°25' E 014°34'0 0.0
2018-Feb-13 19:18N 53°25' E 014°34'0 0.0
2018-Feb-13 19:00N 53°25' E 014°34'0 0.0
2018-Feb-13 18:30N 53°25' E 014°34'0 0.0
2018-Feb-13 17:57N 53°25' E 014°34'0 0.0
2018-Feb-13 17:24N 53°25' E 014°34'0 0.0
2018-Feb-13 16:57N 53°25' E 014°34'0 0.0
2018-Feb-13 16:24N 53°25' E 014°34'0 0.0
2018-Feb-13 16:00N 53°25' E 014°34'0 0.0
2018-Feb-13 15:15N 53°25' E 014°34'0 0.0
2018-Feb-13 14:42N 53°25' E 014°34'0 0.0
2018-Feb-13 14:21N 53°25' E 014°34'0 0.0
2018-Feb-13 13:54N 53°25' E 014°34'0 0.0
2018-Feb-13 13:21N 53°25' E 014°34'0 0.0
2018-Feb-13 12:57N 53°25' E 014°34'0 0.0
2018-Feb-13 12:27N 53°25' E 014°34'0 0.0
2018-Feb-13 11:39N 53°25' E 014°34'0 0.0
2018-Feb-13 11:12N 53°25' E 014°34'0 0.0
2018-Feb-13 10:51N 53°25' E 014°34'0 0.0
2018-Feb-13 10:30N 53°25' E 014°34'0 0.0
2018-Feb-13 09:57N 53°25' E 014°34'0 0.0
2018-Feb-13 09:03N 53°25' E 014°34'0 0.0
2018-Feb-13 08:48N 53°25' E 014°34'0 0.0
2018-Feb-13 08:27N 53°25' E 014°34'0 0.0
2018-Feb-13 07:57N 53°25' E 014°34'0 0.0
2018-Feb-13 07:30N 53°25' E 014°34'0 0.0
2018-Feb-13 06:57N 53°25' E 014°34'0 0.0
2018-Feb-13 06:30N 53°25' E 014°34'0 0.0
2018-Feb-13 05:57N 53°25' E 014°34'0 0.0
2018-Feb-13 05:27N 53°25' E 014°34'0 0.0
2018-Feb-13 05:00N 53°25' E 014°34'0 0.0
2018-Feb-13 04:30N 53°25' E 014°34'0 0.0
2018-Feb-13 04:00N 53°25' E 014°34'0 0.0
2018-Feb-13 03:24N 53°25' E 014°34'0 0.0
2018-Feb-13 02:54N 53°25' E 014°34'0 0.0
2018-Feb-13 02:24N 53°25' E 014°34'0 0.0
2018-Feb-13 02:00N 53°25' E 014°34'0 0.0
2018-Feb-13 01:24N 53°25' E 014°34'0 0.0
2018-Feb-13 00:42N 53°25' E 014°34'0 0.0
2018-Feb-13 00:30N 53°25' E 014°34'0 0.0
2018-Feb-12 23:54N 53°25' E 014°34'0 0.0
2018-Feb-12 23:27N 53°25' E 014°34'0 0.0
2018-Feb-12 22:57N 53°25' E 014°34'0 0.0
2018-Feb-12 22:27N 53°25' E 014°34'0 0.0
2018-Feb-12 21:48N 53°25' E 014°34'0 0.0
2018-Feb-12 21:21N 53°25' E 014°34'0 0.0
2018-Feb-12 20:51N 53°25' E 014°34'0 0.0
2018-Feb-12 20:27N 53°25' E 014°34'0 0.0
2018-Feb-12 19:57N 53°25' E 014°34'0 0.0
2018-Feb-12 19:30N 53°25' E 014°34'0 0.0
2018-Feb-12 18:27N 53°25' E 014°34'0 0.0
2018-Feb-12 17:57N 53°25' E 014°34'0 0.0
2018-Feb-12 17:27N 53°25' E 014°34'0 0.0
2018-Feb-12 17:00N 53°25' E 014°34'0 0.0
2018-Feb-12 16:27N 53°25' E 014°34'0 0.0
2018-Feb-12 15:18N 53°25' E 014°34'0 0.0
2018-Feb-12 14:57N 53°25' E 014°34'0 0.0
2018-Feb-12 14:30N 53°25' E 014°34'0 0.0
2018-Feb-12 13:51N 53°25' E 014°34'0 0.0
2018-Feb-12 13:27N 53°25' E 014°34'0 0.0
2018-Feb-12 12:57N 53°25' E 014°34'0 0.0
2018-Feb-12 12:27N 53°25' E 014°34'0 0.0
2018-Feb-12 12:00N 53°25' E 014°34'0 0.0
2018-Feb-12 11:27N 53°25' E 014°34'0 0.0
2018-Feb-12 10:54N 53°25' E 014°34'0 0.0
2018-Feb-12 10:24N 53°25' E 014°34'0 0.0
2018-Feb-12 10:00N 53°25' E 014°34'0 0.0
2018-Feb-12 09:30N 53°25' E 014°34'0 0.0
2018-Feb-12 09:00N 53°25' E 014°34'0 0.0
2018-Feb-12 08:30N 53°25' E 014°34'0 0.0
2018-Feb-12 08:00N 53°25' E 014°34'0 0.0
2018-Feb-12 07:30N 53°25' E 014°34'0 0.0
2018-Feb-12 07:00N 53°25' E 014°34'0 0.0
2018-Feb-12 06:30N 53°25' E 014°34'0 0.0
2018-Feb-12 06:00N 53°25' E 014°34'0 0.0
2018-Feb-12 05:30N 53°25' E 014°34'0 0.0
2018-Feb-12 05:00N 53°25' E 014°34'0 0.0
2018-Feb-12 04:30N 53°25' E 014°34'0 0.0
2018-Feb-12 04:00N 53°25' E 014°34'0 0.0
2018-Feb-12 03:30N 53°25' E 014°34'0 0.0
2018-Feb-12 03:00N 53°25' E 014°34'0 0.0
2018-Feb-12 02:30N 53°25' E 014°34'0 0.0
2018-Feb-12 02:00N 53°25' E 014°34'0 0.0
2018-Feb-12 01:30N 53°25' E 014°34'0 0.0
2018-Feb-12 01:00N 53°25' E 014°34'0 0.0
2018-Feb-12 00:30N 53°25' E 014°34'0 0.0
2018-Feb-12 00:00N 53°25' E 014°34'0 0.0
2018-Feb-11 23:30N 53°25' E 014°34'0 0.0
2018-Feb-11 23:00N 53°25' E 014°34'0 0.0
2018-Feb-11 22:30N 53°25' E 014°34'0 0.0
2018-Feb-11 22:00N 53°25' E 014°34'0 0.0
2018-Feb-11 21:30N 53°25' E 014°34'0 0.0
2018-Feb-11 21:00N 53°25' E 014°34'0 0.0
2018-Feb-11 20:30N 53°25' E 014°34'0 0.0
2018-Feb-11 20:00N 53°25' E 014°34'0 0.0
2018-Feb-11 19:27N 53°25' E 014°34'0 0.0
2018-Feb-11 19:00N 53°25' E 014°34'0 0.0
2018-Feb-11 18:30N 53°25' E 014°34'0 0.0
2018-Feb-11 18:00N 53°25' E 014°34'0 0.0
2018-Feb-11 17:30N 53°25' E 014°34'0 0.0
2018-Feb-11 17:00N 53°25' E 014°34'0 0.5
2018-Feb-11 16:30N 53°26' E 014°35'3 5.5
2018-Feb-11 16:01N 53°28' E 014°36'4 7.9
2018-Feb-11 15:30N 53°32' E 014°38'4 8.5
2018-Feb-11 15:00N 53°36' E 014°35'4 8.6
2018-Feb-11 14:31N 53°40' E 014°32'460 9.9
2018-Feb-09 16:01N 59°38' E 023°18'611.0
2018-Feb-09 15:30N 59°39' E 023°28'611.1
2018-Feb-09 15:00N 59°41' E 023°39'511.0
2018-Feb-09 14:31N 59°42' E 023°49'4810.7
2018-Feb-09 10:00N 59°53' E 025°23'  

Dump ship's entire track history